Bei Facebook empfehlenBei Twitter postenGoogle plusPinterest

Das Wetter im Erzgebirge am 12.05.2015

Wetter und Klima am 12.05.2015 Holzhau im Erzgebirge (630m ü.NN)
Letzte gemessene Temperatur und Uhrzeit der Messung23:45:00 Uhr11.30 °C
Temperatur (Maximum / Höchstwert) und Uhrzeit der Messung17:15:00 Uhr22.60 °C
Temperatur (Minimum / Tiefstwert) und Uhrzeit der Messung05:45:005.80 °C
Errechneter Absolutwert der Temperaturschwankungen zwischen Tmin und Tmax des Tages16.80 K
Errechnete Tagesmitteltemperatur15.21875 °C
Gesamt - Niederschlag des Tages (in flüssiger Form)4.14 Liter / m²
Luftdruck (Maximum / Höchstwert) und Zeitpunkt der Messung00:00:00 Uhr1021.80 hPa
Luftdruck (Minimum / Tiefstwert) und Zeitpunkt der Messung20:00:00 Uhr1012.80 hPa
Errechneter Absolutwert der Luftdruckschwankungen des Tages9.00 hPa
Höchste gemessene Windgeschwindigkeit und Uhrzeit der Messung18:15:00 Uhr9.72 km/h
Errechnete Windhäufigkeit in Relation zu den Messwerten des Tages8.33333 %
Niedrigste Windkühle (Windchill) und Zeitpunkt der Messung05:45:00 Uhr5.80 °C
Taupunkt (Maximum / Höchstwert) und Uhrzeit der Messung21:45:00 Uhr12.60 °C
Taupunkt (Minimum / Tiefstwert) und Uhrzeit der Messung02:15:002.20 °C
Anzahl der automatisch eingelesenen Messwerte 96

Detaillierte Wetter- und Klima- Messwerte für den 12.05.2015 in Holzhau im Erzgebirge (630m ü.NN)
ZeitTemperaturLuftdruckRel. LuftfeuchteWindWindrichtungWindchillTaupunktNiederschlag l/m²
23:45:0011.30 °C1016.60 hPa89.00 %7.20 km/hW10.70 °C9.60 °C4.14
23:30:0011.40 °C1016.60 hPa88.00 %9.50 °C4.14
23:15:0011.60 °C1016.20 hPa88.00 %9.70 °C4.14
23:00:0011.90 °C1017.40 hPa87.00 %9.80 °C3.11
22:45:0012.60 °C1016.50 hPa84.00 %8.64 km/hWNW12.00 °C10.00 °C2.59
22:30:0013.60 °C1016.60 hPa82.00 %10.60 °C0.52
22:15:0014.80 °C1016.20 hPa79.00 %11.20 °C 
22:00:0016.00 °C1015.60 hPa77.00 %12.00 °C 
21:45:0017.10 °C1015.50 hPa75.00 %4.32 km/hNNW17.10 °C12.60 °C 
21:30:0017.90 °C1014.60 hPa69.00 %12.10 °C 
21:15:0018.40 °C1013.90 hPa61.00 %10.70 °C 
21:00:0018.20 °C1013.10 hPa61.00 %10.60 °C 
20:45:0018.40 °C1012.90 hPa60.00 %10.50 °C 
20:30:0018.90 °C1013.10 hPa58.00 %10.50 °C 
20:15:0019.30 °C1012.90 hPa58.00 %10.80 °C 
20:00:0019.30 °C1012.80 hPa57.00 %10.60 °C 
19:45:0019.10 °C1013.00 hPa58.00 %10.60 °C 
19:30:0019.50 °C1013.20 hPa58.00 %11.00 °C 
19:15:0019.70 °C1013.50 hPa59.00 %11.50 °C 
19:00:0020.20 °C1013.80 hPa58.00 %11.70 °C 
18:45:0020.50 °C1013.80 hPa56.00 %11.40 °C 
18:30:0021.00 °C1013.70 hPa55.00 %11.60 °C 
18:15:0021.80 °C1013.90 hPa53.00 %9.72 km/hSO22.70 °C11.80 °C 
18:00:0022.40 °C1013.90 hPa52.00 %12.10 °C 
17:45:0022.40 °C1014.20 hPa53.00 %12.40 °C 
17:30:0022.40 °C1014.30 hPa52.00 %12.10 °C 
17:15:0022.60 °C1014.70 hPa53.00 %12.50 °C 
17:00:0022.40 °C1014.90 hPa52.00 %12.10 °C 
16:45:0022.30 °C1015.10 hPa52.00 %12.00 °C 
16:30:0021.90 °C1015.50 hPa51.00 %11.30 °C 
16:15:0021.50 °C1015.70 hPa52.00 %11.20 °C 
16:00:0021.50 °C1015.90 hPa51.00 %10.90 °C 
15:45:0021.60 °C1016.10 hPa51.00 %11.00 °C 
15:30:0021.60 °C1016.30 hPa51.00 %11.00 °C 
15:15:0021.80 °C1016.50 hPa51.00 %9.00 km/hSW22.80 °C11.20 °C 
15:00:0021.30 °C1016.60 hPa51.00 %10.80 °C 
14:45:0021.20 °C1016.80 hPa50.00 %10.40 °C 
14:30:0021.20 °C1017.00 hPa51.00 %10.70 °C 
14:15:0021.00 °C1017.00 hPa51.00 %10.50 °C 
14:00:0020.90 °C1017.20 hPa51.00 %10.40 °C 
13:45:0021.10 °C1017.30 hPa50.00 %10.30 °C 
13:30:0020.80 °C1017.40 hPa50.00 %8.64 km/hS21.60 °C10.00 °C 
13:15:0020.50 °C1017.90 hPa50.00 %9.70 °C 
13:00:0020.80 °C1018.00 hPa47.00 %9.10 °C 
12:45:0020.60 °C1018.10 hPa47.00 %6.84 km/hS21.60 °C8.90 °C 
12:30:0020.80 °C1018.30 hPa47.00 %9.10 °C 
12:15:0020.90 °C1018.30 hPa47.00 %9.20 °C 
12:00:0020.60 °C1018.50 hPa48.00 %1.08 km/hS20.60 °C9.20 °C 
11:45:0020.10 °C1018.40 hPa48.00 %8.80 °C 
11:30:0019.50 °C1018.70 hPa49.00 %8.50 °C 
11:15:0019.90 °C1018.90 hPa48.00 %8.60 °C 
11:00:0019.90 °C1018.80 hPa48.00 %8.60 °C 
10:45:0019.40 °C1019.00 hPa49.00 %8.40 °C 
10:30:0019.60 °C1018.80 hPa48.00 %8.30 °C 
10:15:0019.30 °C1018.90 hPa49.00 %8.30 °C 
10:00:0018.90 °C1019.00 hPa51.00 %8.60 °C 
09:45:0018.30 °C1019.00 hPa51.00 %8.00 °C 
09:30:0017.50 °C1019.10 hPa55.00 %8.40 °C 
09:15:0016.90 °C1019.40 hPa57.00 %8.30 °C 
09:00:0016.50 °C1019.40 hPa57.00 %8.00 °C 
08:45:0016.50 °C1019.50 hPa58.00 %8.20 °C 
08:30:0015.80 °C1019.40 hPa61.00 %8.30 °C 
08:15:0014.40 °C1019.40 hPa66.00 %8.10 °C 
08:00:0013.00 °C1019.50 hPa70.00 %7.70 °C 
07:45:0012.20 °C1019.50 hPa72.00 %7.30 °C 
07:30:0011.60 °C1019.60 hPa75.00 %7.30 °C 
07:15:0010.10 °C1019.60 hPa78.00 %6.40 °C 
07:00:008.90 °C1019.80 hPa80.00 %5.60 °C 
06:45:007.80 °C1019.80 hPa81.00 %4.70 °C 
06:30:006.80 °C1019.90 hPa82.00 %3.90 °C 
06:15:006.30 °C1019.90 hPa81.00 %3.30 °C 
06:00:005.90 °C1019.90 hPa81.00 %2.90 °C 
05:45:005.80 °C1019.90 hPa81.00 %2.80 °C 
05:30:005.90 °C1020.20 hPa80.00 %2.70 °C 
05:15:006.00 °C1020.10 hPa79.00 %2.60 °C 
05:00:006.20 °C1020.10 hPa78.00 %2.70 °C 
04:45:006.50 °C1020.30 hPa78.00 %2.90 °C 
04:30:006.40 °C1020.40 hPa77.00 %2.70 °C 
04:15:006.50 °C1020.60 hPa76.00 %2.60 °C 
04:00:006.60 °C1020.60 hPa76.00 %2.70 °C 
03:45:006.40 °C1020.60 hPa75.00 %2.30 °C 
03:30:007.10 °C1020.90 hPa73.00 %2.60 °C 
03:15:007.50 °C1020.60 hPa72.00 %2.80 °C 
03:00:007.60 °C1020.60 hPa72.00 %2.90 °C 
02:45:007.40 °C1020.60 hPa73.00 %2.90 °C 
02:30:007.30 °C1020.90 hPa73.00 %2.80 °C 
02:15:007.30 °C1020.90 hPa70.00 %2.20 °C 
02:00:008.10 °C1021.10 hPa69.00 %2.80 °C 
01:45:008.30 °C1021.10 hPa69.00 %3.00 °C 
01:30:007.90 °C1021.00 hPa69.00 %2.60 °C 
01:15:007.90 °C1021.40 hPa68.00 %2.40 °C 
01:00:008.50 °C1021.60 hPa66.00 %2.50 °C 
00:45:008.80 °C1021.50 hPa66.00 %2.80 °C 
00:30:009.10 °C1021.70 hPa65.00 %2.90 °C 
00:15:009.10 °C1021.70 hPa65.00 %2.90 °C 
00:00:009.10 °C1021.80 hPa66.00 %3.10 °C 

Permanenter Link zu dieser Seite: Wetter im Erzgebirge am 12.05.2015
Performance-Info: Die Erstellung der Seite / Statistik(en) / Tabelle(n) erforderte 5 Datenbankserver-Abfrage(n) und dauerte 90 Millisekunden. (Dieser Messwert ist von der Gesamt-Auslastung des Servers abhängig.)
Erzgebirge - Wetter | Erzgebirge - Wetter (Mobilgeräte) | Komplette Klimadatenbank